sensor_id;sensor_type;location;lat;lon;timestamp;temperature;humidity
74792;SHT30;63319;46.046;17.802;2023-12-07T00:02:25;1.99;90.37
74792;SHT30;63319;46.046;17.802;2023-12-07T00:05:28;1.96;88.73
74792;SHT30;63319;46.046;17.802;2023-12-07T00:08:31;2.02;89.04
74792;SHT30;63319;46.046;17.802;2023-12-07T00:11:35;1.74;91.00
74792;SHT30;63319;46.046;17.802;2023-12-07T00:14:38;2.02;89.10
74792;SHT30;63319;46.046;17.802;2023-12-07T00:17:41;1.96;89.24
74792;SHT30;63319;46.046;17.802;2023-12-07T00:20:44;1.59;91.50
74792;SHT30;63319;46.046;17.802;2023-12-07T00:23:48;2.17;89.39
74792;SHT30;63319;46.046;17.802;2023-12-07T00:26:51;2.48;88.53
74792;SHT30;63319;46.046;17.802;2023-12-07T00:29:54;1.87;88.25
74792;SHT30;63319;46.046;17.802;2023-12-07T00:32:57;2.03;90.42
74792;SHT30;63319;46.046;17.802;2023-12-07T00:36:00;1.68;90.98
74792;SHT30;63319;46.046;17.802;2023-12-07T00:39:03;1.86;89.98
74792;SHT30;63319;46.046;17.802;2023-12-07T00:42:07;1.66;90.55
74792;SHT30;63319;46.046;17.802;2023-12-07T00:45:11;1.62;91.52
74792;SHT30;63319;46.046;17.802;2023-12-07T00:48:15;1.81;90.65
74792;SHT30;63319;46.046;17.802;2023-12-07T00:51:18;1.47;91.70
74792;SHT30;63319;46.046;17.802;2023-12-07T00:54:21;1.37;92.49
74792;SHT30;63319;46.046;17.802;2023-12-07T00:57:24;1.62;92.49
74792;SHT30;63319;46.046;17.802;2023-12-07T01:00:28;1.35;91.97
74792;SHT30;63319;46.046;17.802;2023-12-07T01:03:31;1.17;92.91
74792;SHT30;63319;46.046;17.802;2023-12-07T01:06:34;1.35;92.76
74792;SHT30;63319;46.046;17.802;2023-12-07T01:09:38;1.62;91.74
74792;SHT30;63319;46.046;17.802;2023-12-07T01:12:41;2.26;90.71
74792;SHT30;63319;46.046;17.802;2023-12-07T01:15:44;2.02;90.13
74792;SHT30;63319;46.046;17.802;2023-12-07T01:18:47;2.50;88.79
74792;SHT30;63319;46.046;17.802;2023-12-07T01:21:50;2.07;89.45
74792;SHT30;63319;46.046;17.802;2023-12-07T01:24:53;2.51;89.23
74792;SHT30;63319;46.046;17.802;2023-12-07T01:27:57;2.71;87.83
74792;SHT30;63319;46.046;17.802;2023-12-07T01:31:00;2.61;86.64
74792;SHT30;63319;46.046;17.802;2023-12-07T01:34:03;2.23;88.59
74792;SHT30;63319;46.046;17.802;2023-12-07T01:37:06;1.82;90.83
74792;SHT30;63319;46.046;17.802;2023-12-07T01:40:10;2.01;91.14
74792;SHT30;63319;46.046;17.802;2023-12-07T01:43:13;2.17;89.10
74792;SHT30;63319;46.046;17.802;2023-12-07T01:46:17;2.37;89.11
74792;SHT30;63319;46.046;17.802;2023-12-07T01:49:21;2.44;89.18
74792;SHT30;63319;46.046;17.802;2023-12-07T01:52:27;2.06;88.91
74792;SHT30;63319;46.046;17.802;2023-12-07T01:55:31;2.20;88.53
74792;SHT30;63319;46.046;17.802;2023-12-07T01:58:35;2.20;89.57
74792;SHT30;63319;46.046;17.802;2023-12-07T02:01:38;2.36;89.22
74792;SHT30;63319;46.046;17.802;2023-12-07T02:04:41;2.05;89.24
74792;SHT30;63319;46.046;17.802;2023-12-07T02:07:45;1.81;90.15
74792;SHT30;63319;46.046;17.802;2023-12-07T02:10:49;1.93;91.06
74792;SHT30;63319;46.046;17.802;2023-12-07T02:13:52;2.12;90.03
74792;SHT30;63319;46.046;17.802;2023-12-07T02:20:29;2.30;89.84
74792;SHT30;63319;46.046;17.802;2023-12-07T02:23:35;2.24;89.12
74792;SHT30;63319;46.046;17.802;2023-12-07T02:26:51;2.13;89.55
74792;SHT30;63319;46.046;17.802;2023-12-07T02:29:54;2.05;90.53
74792;SHT30;63319;46.046;17.802;2023-12-07T02:32:57;2.17;90.53
74792;SHT30;63319;46.046;17.802;2023-12-07T02:36:01;1.76;90.49
74792;SHT30;63319;46.046;17.802;2023-12-07T02:39:05;1.98;91.02
74792;SHT30;63319;46.046;17.802;2023-12-07T02:42:09;1.91;90.64
74792;SHT30;63319;46.046;17.802;2023-12-07T02:45:14;1.96;90.25
74792;SHT30;63319;46.046;17.802;2023-12-07T02:48:17;1.85;90.74
74792;SHT30;63319;46.046;17.802;2023-12-07T02:51:22;1.92;90.72
74792;SHT30;63319;46.046;17.802;2023-12-07T02:54:26;1.87;90.55
74792;SHT30;63319;46.046;17.802;2023-12-07T02:57:29;1.75;91.07
74792;SHT30;63319;46.046;17.802;2023-12-07T03:00:32;1.92;91.46
74792;SHT30;63319;46.046;17.802;2023-12-07T03:03:35;1.87;91.97
74792;SHT30;63319;46.046;17.802;2023-12-07T03:06:41;1.71;91.13
74792;SHT30;63319;46.046;17.802;2023-12-07T03:09:44;1.59;91.87
74792;SHT30;63319;46.046;17.802;2023-12-07T03:12:47;1.68;91.55
74792;SHT30;63319;46.046;17.802;2023-12-07T03:15:51;1.55;92.36
74792;SHT30;63319;46.046;17.802;2023-12-07T03:18:54;1.41;92.86
74792;SHT30;63319;46.046;17.802;2023-12-07T03:21:58;1.47;93.25
74792;SHT30;63319;46.046;17.802;2023-12-07T03:25:01;1.48;93.03
74792;SHT30;63319;46.046;17.802;2023-12-07T03:28:04;1.62;92.65
74792;SHT30;63319;46.046;17.802;2023-12-07T03:31:07;1.54;92.38
74792;SHT30;63319;46.046;17.802;2023-12-07T03:34:11;1.56;92.93
74792;SHT30;63319;46.046;17.802;2023-12-07T03:37:15;1.51;92.93
74792;SHT30;63319;46.046;17.802;2023-12-07T03:40:18;1.45;93.36
74792;SHT30;63319;46.046;17.802;2023-12-07T03:43:21;1.45;93.37
74792;SHT30;63319;46.046;17.802;2023-12-07T03:46:25;1.61;93.56
74792;SHT30;63319;46.046;17.802;2023-12-07T03:49:28;1.52;93.21
74792;SHT30;63319;46.046;17.802;2023-12-07T03:52:31;1.99;92.74
74792;SHT30;63319;46.046;17.802;2023-12-07T03:55:34;2.38;90.21
74792;SHT30;63319;46.046;17.802;2023-12-07T03:58:38;1.95;91.80
74792;SHT30;63319;46.046;17.802;2023-12-07T04:01:41;2.38;90.27
74792;SHT30;63319;46.046;17.802;2023-12-07T04:04:44;2.54;89.87
74792;SHT30;63319;46.046;17.802;2023-12-07T04:07:47;2.30;88.30
74792;SHT30;63319;46.046;17.802;2023-12-07T04:10:51;2.03;90.00
74792;SHT30;63319;46.046;17.802;2023-12-07T04:13:54;1.74;91.90
74792;SHT30;63319;46.046;17.802;2023-12-07T04:16:57;1.75;92.40
74792;SHT30;63319;46.046;17.802;2023-12-07T04:20:00;1.95;92.25
74792;SHT30;63319;46.046;17.802;2023-12-07T04:23:03;1.76;91.77
74792;SHT30;63319;46.046;17.802;2023-12-07T04:26:06;1.71;93.00
74792;SHT30;63319;46.046;17.802;2023-12-07T04:29:09;2.16;91.57
74792;SHT30;63319;46.046;17.802;2023-12-07T04:32:13;1.95;92.29
74792;SHT30;63319;46.046;17.802;2023-12-07T04:35:16;2.54;90.53
74792;SHT30;63319;46.046;17.802;2023-12-07T04:38:19;2.51;89.23
74792;SHT30;63319;46.046;17.802;2023-12-07T04:41:22;2.47;89.68
74792;SHT30;63319;46.046;17.802;2023-12-07T04:44:25;2.57;89.50
74792;SHT30;63319;46.046;17.802;2023-12-07T04:47:29;2.23;89.34
74792;SHT30;63319;46.046;17.802;2023-12-07T04:50:32;2.09;91.06
74792;SHT30;63319;46.046;17.802;2023-12-07T04:53:35;2.37;90.80
74792;SHT30;63319;46.046;17.802;2023-12-07T04:56:40;1.96;91.21
74792;SHT30;63319;46.046;17.802;2023-12-07T04:59:43;2.34;89.84
74792;SHT30;63319;46.046;17.802;2023-12-07T05:02:50;2.68;88.89
74792;SHT30;63319;46.046;17.802;2023-12-07T05:05:54;2.23;89.94
74792;SHT30;63319;46.046;17.802;2023-12-07T05:08:57;1.74;91.50
74792;SHT30;63319;46.046;17.802;2023-12-07T05:12:00;2.03;91.10
74792;SHT30;63319;46.046;17.802;2023-12-07T05:15:04;1.83;92.02
74792;SHT30;63319;46.046;17.802;2023-12-07T05:18:08;2.55;89.92
74792;SHT30;63319;46.046;17.802;2023-12-07T05:21:12;2.58;89.62
74792;SHT30;63319;46.046;17.802;2023-12-07T05:24:15;2.61;88.35
74792;SHT30;63319;46.046;17.802;2023-12-07T05:27:18;2.71;89.79
74792;SHT30;63319;46.046;17.802;2023-12-07T05:30:22;2.20;89.00
74792;SHT30;63319;46.046;17.802;2023-12-07T05:33:26;2.70;88.72
74792;SHT30;63319;46.046;17.802;2023-12-07T05:36:29;2.82;88.30
74792;SHT30;63319;46.046;17.802;2023-12-07T05:39:33;3.01;87.08
74792;SHT30;63319;46.046;17.802;2023-12-07T05:42:36;2.89;87.44
74792;SHT30;63319;46.046;17.802;2023-12-07T05:45:39;3.02;87.41
74792;SHT30;63319;46.046;17.802;2023-12-07T05:48:42;3.03;87.60
74792;SHT30;63319;46.046;17.802;2023-12-07T05:51:45;2.96;87.68
74792;SHT30;63319;46.046;17.802;2023-12-07T05:54:48;2.98;87.57
74792;SHT30;63319;46.046;17.802;2023-12-07T05:57:52;2.93;88.16
74792;SHT30;63319;46.046;17.802;2023-12-07T06:00:56;2.85;87.71
74792;SHT30;63319;46.046;17.802;2023-12-07T06:04:00;2.96;87.65
74792;SHT30;63319;46.046;17.802;2023-12-07T06:07:03;2.92;87.41
74792;SHT30;63319;46.046;17.802;2023-12-07T06:10:07;3.33;86.69
74792;SHT30;63319;46.046;17.802;2023-12-07T06:13:12;2.85;87.39
74792;SHT30;63319;46.046;17.802;2023-12-07T06:16:16;2.72;88.13
74792;SHT30;63319;46.046;17.802;2023-12-07T06:19:21;2.88;88.58
74792;SHT30;63319;46.046;17.802;2023-12-07T06:22:25;2.58;89.14
74792;SHT30;63319;46.046;17.802;2023-12-07T06:25:28;2.61;89.35
74792;SHT30;63319;46.046;17.802;2023-12-07T06:28:31;2.65;88.85
74792;SHT30;63319;46.046;17.802;2023-12-07T06:31:35;2.43;89.21
74792;SHT30;63319;46.046;17.802;2023-12-07T06:34:42;2.77;88.87
74792;SHT30;63319;46.046;17.802;2023-12-07T06:37:45;3.05;88.93
74792;SHT30;63319;46.046;17.802;2023-12-07T06:40:49;3.29;86.91
74792;SHT30;63319;46.046;17.802;2023-12-07T06:43:51;3.02;87.43
74792;SHT30;63319;46.046;17.802;2023-12-07T06:46:57;3.24;87.31
74792;SHT30;63319;46.046;17.802;2023-12-07T06:50:00;3.10;87.44
74792;SHT30;63319;46.046;17.802;2023-12-07T06:53:09;3.33;86.66
74792;SHT30;63319;46.046;17.802;2023-12-07T06:56:12;3.34;86.96
74792;SHT30;63319;46.046;17.802;2023-12-07T06:59:15;3.10;87.24
74792;SHT30;63319;46.046;17.802;2023-12-07T07:02:19;3.34;87.10
74792;SHT30;63319;46.046;17.802;2023-12-07T07:05:22;3.29;86.43
74792;SHT30;63319;46.046;17.802;2023-12-07T07:08:26;3.37;86.92
74792;SHT30;63319;46.046;17.802;2023-12-07T07:11:29;2.81;88.25
74792;SHT30;63319;46.046;17.802;2023-12-07T07:14:32;2.87;88.35
74792;SHT30;63319;46.046;17.802;2023-12-07T07:17:36;2.72;88.88
74792;SHT30;63319;46.046;17.802;2023-12-07T07:20:39;2.55;89.75
74792;SHT30;63319;46.046;17.802;2023-12-07T07:23:42;3.26;87.85
74792;SHT30;63319;46.046;17.802;2023-12-07T07:26:45;3.20;88.02
74792;SHT30;63319;46.046;17.802;2023-12-07T07:29:49;3.30;86.47
74792;SHT30;63319;46.046;17.802;2023-12-07T07:32:52;3.63;86.02
74792;SHT30;63319;46.046;17.802;2023-12-07T07:35:55;3.89;84.68
74792;SHT30;63319;46.046;17.802;2023-12-07T07:39:01;3.36;86.30
74792;SHT30;63319;46.046;17.802;2023-12-07T07:42:04;3.68;85.77
74792;SHT30;63319;46.046;17.802;2023-12-07T07:45:09;3.43;84.76
74792;SHT30;63319;46.046;17.802;2023-12-07T07:48:13;3.75;85.28
74792;SHT30;63319;46.046;17.802;2023-12-07T07:51:16;4.03;83.75
74792;SHT30;63319;46.046;17.802;2023-12-07T07:54:19;3.92;84.55
74792;SHT30;63319;46.046;17.802;2023-12-07T07:57:22;3.36;84.89
74792;SHT30;63319;46.046;17.802;2023-12-07T08:00:26;3.12;86.34
74792;SHT30;63319;46.046;17.802;2023-12-07T08:03:28;3.79;85.34
74792;SHT30;63319;46.046;17.802;2023-12-07T08:06:32;3.53;85.11
74792;SHT30;63319;46.046;17.802;2023-12-07T08:09:39;3.56;84.98
74792;SHT30;63319;46.046;17.802;2023-12-07T08:12:42;3.34;84.47
74792;SHT30;63319;46.046;17.802;2023-12-07T08:15:46;3.13;86.88
74792;SHT30;63319;46.046;17.802;2023-12-07T08:18:49;3.24;86.25
74792;SHT30;63319;46.046;17.802;2023-12-07T08:21:52;3.44;84.53
74792;SHT30;63319;46.046;17.802;2023-12-07T08:24:55;3.63;84.26
74792;SHT30;63319;46.046;17.802;2023-12-07T08:28:10;3.33;84.98
74792;SHT30;63319;46.046;17.802;2023-12-07T08:31:14;3.75;84.12
74792;SHT30;63319;46.046;17.802;2023-12-07T08:34:17;3.87;84.19
74792;SHT30;63319;46.046;17.802;2023-12-07T08:37:24;3.60;83.22
74792;SHT30;63319;46.046;17.802;2023-12-07T08:40:27;3.70;84.06
74792;SHT30;63319;46.046;17.802;2023-12-07T08:43:30;4.02;82.73
74792;SHT30;63319;46.046;17.802;2023-12-07T08:46:34;4.25;82.01
74792;SHT30;63319;46.046;17.802;2023-12-07T08:49:37;4.01;82.54
74792;SHT30;63319;46.046;17.802;2023-12-07T08:52:41;4.08;82.47
74792;SHT30;63319;46.046;17.802;2023-12-07T08:55:53;4.20;82.98
74792;SHT30;63319;46.046;17.802;2023-12-07T08:58:56;4.13;82.34
74792;SHT30;63319;46.046;17.802;2023-12-07T09:01:59;4.37;81.82
74792;SHT30;63319;46.046;17.802;2023-12-07T09:05:03;4.73;80.66
74792;SHT30;63319;46.046;17.802;2023-12-07T09:08:06;4.89;80.13
74792;SHT30;63319;46.046;17.802;2023-12-07T09:11:10;4.98;80.01
74792;SHT30;63319;46.046;17.802;2023-12-07T09:14:13;5.42;77.99
74792;SHT30;63319;46.046;17.802;2023-12-07T09:17:16;6.07;75.98
74792;SHT30;63319;46.046;17.802;2023-12-07T09:20:20;6.20;74.49
74792;SHT30;63319;46.046;17.802;2023-12-07T09:23:24;6.18;75.06
74792;SHT30;63319;46.046;17.802;2023-12-07T09:26:28;6.69;73.13
74792;SHT30;63319;46.046;17.802;2023-12-07T09:29:31;6.86;72.31
74792;SHT30;63319;46.046;17.802;2023-12-07T09:32:34;6.90;72.06
74792;SHT30;63319;46.046;17.802;2023-12-07T09:35:41;7.05;71.50
74792;SHT30;63319;46.046;17.802;2023-12-07T09:38:45;7.19;71.33
74792;SHT30;63319;46.046;17.802;2023-12-07T09:41:48;6.36;71.78
74792;SHT30;63319;46.046;17.802;2023-12-07T09:44:52;6.81;72.13
74792;SHT30;63319;46.046;17.802;2023-12-07T09:47:55;5.94;74.93
74792;SHT30;63319;46.046;17.802;2023-12-07T09:50:59;6.45;75.36
74792;SHT30;63319;46.046;17.802;2023-12-07T09:54:04;6.72;73.52
74792;SHT30;63319;46.046;17.802;2023-12-07T09:57:08;7.22;71.22
74792;SHT30;63319;46.046;17.802;2023-12-07T10:00:14;6.42;72.42
74792;SHT30;63319;46.046;17.802;2023-12-07T10:03:21;7.24;70.63
74792;SHT30;63319;46.046;17.802;2023-12-07T10:06:26;7.05;69.49
74792;SHT30;63319;46.046;17.802;2023-12-07T10:09:29;7.59;67.72
74792;SHT30;63319;46.046;17.802;2023-12-07T10:12:44;8.58;64.96
74792;SHT30;63319;46.046;17.802;2023-12-07T10:16:08;9.82;60.04
74792;SHT30;63319;46.046;17.802;2023-12-07T10:22:32;8.97;61.07
74792;SHT30;63319;46.046;17.802;2023-12-07T10:25:40;8.40;64.06
74792;SHT30;63319;46.046;17.802;2023-12-07T10:28:44;8.51;64.30
74792;SHT30;63319;46.046;17.802;2023-12-07T10:31:49;7.85;65.78
74792;SHT30;63319;46.046;17.802;2023-12-07T10:34:53;7.54;66.13
74792;SHT30;63319;46.046;17.802;2023-12-07T10:37:56;7.41;67.07
74792;SHT30;63319;46.046;17.802;2023-12-07T10:41:05;7.14;68.24
74792;SHT30;63319;46.046;17.802;2023-12-07T10:44:13;7.56;66.41
74792;SHT30;63319;46.046;17.802;2023-12-07T10:47:17;7.59;66.41
74792;SHT30;63319;46.046;17.802;2023-12-07T10:50:22;7.73;65.53
74792;SHT30;63319;46.046;17.802;2023-12-07T10:53:27;7.14;67.01
74792;SHT30;63319;46.046;17.802;2023-12-07T10:56:38;6.87;66.33
74792;SHT30;63319;46.046;17.802;2023-12-07T10:59:45;7.05;67.27
74792;SHT30;63319;46.046;17.802;2023-12-07T11:02:50;6.84;68.65
74792;SHT30;63319;46.046;17.802;2023-12-07T11:05:58;7.35;65.52
74792;SHT30;63319;46.046;17.802;2023-12-07T11:09:04;7.52;65.28
74792;SHT30;63319;46.046;17.802;2023-12-07T11:12:18;7.19;65.83
74792;SHT30;63319;46.046;17.802;2023-12-07T11:15:22;7.32;66.23
74792;SHT30;63319;46.046;17.802;2023-12-07T11:18:26;7.75;64.47
74792;SHT30;63319;46.046;17.802;2023-12-07T11:21:30;8.01;64.49
74792;SHT30;63319;46.046;17.802;2023-12-07T11:24:33;8.23;62.42
74792;SHT30;63319;46.046;17.802;2023-12-07T11:27:37;8.28;62.72
74792;SHT30;63319;46.046;17.802;2023-12-07T11:30:45;8.89;60.33
74792;SHT30;63319;46.046;17.802;2023-12-07T11:33:49;10.33;57.92
74792;SHT30;63319;46.046;17.802;2023-12-07T11:36:56;9.06;60.52
74792;SHT30;63319;46.046;17.802;2023-12-07T11:39:59;10.29;56.78
74792;SHT30;63319;46.046;17.802;2023-12-07T11:43:03;10.96;54.05
74792;SHT30;63319;46.046;17.802;2023-12-07T11:46:08;9.67;58.16
74792;SHT30;63319;46.046;17.802;2023-12-07T11:49:11;8.21;61.71
74792;SHT30;63319;46.046;17.802;2023-12-07T11:52:30;8.18;62.74
74792;SHT30;63319;46.046;17.802;2023-12-07T11:55:34;8.13;61.13
74792;SHT30;63319;46.046;17.802;2023-12-07T11:58:37;8.14;62.21
74792;SHT30;63319;46.046;17.802;2023-12-07T12:01:47;8.27;62.17
74792;SHT30;63319;46.046;17.802;2023-12-07T12:04:51;8.18;62.13
74792;SHT30;63319;46.046;17.802;2023-12-07T12:07:54;8.35;62.56
74792;SHT30;63319;46.046;17.802;2023-12-07T12:10:58;8.71;60.02
74792;SHT30;63319;46.046;17.802;2023-12-07T12:14:01;9.82;58.35
74792;SHT30;63319;46.046;17.802;2023-12-07T12:17:05;9.96;57.49
74792;SHT30;63319;46.046;17.802;2023-12-07T12:20:09;9.51;57.88
74792;SHT30;63319;46.046;17.802;2023-12-07T12:23:13;8.90;60.94
74792;SHT30;63319;46.046;17.802;2023-12-07T12:26:17;7.79;62.82
74792;SHT30;63319;46.046;17.802;2023-12-07T12:29:22;7.85;62.89
74792;SHT30;63319;46.046;17.802;2023-12-07T12:32:45;8.13;61.84
74792;SHT30;63319;46.046;17.802;2023-12-07T12:36:06;7.45;64.79
74792;SHT30;63319;46.046;17.802;2023-12-07T12:39:10;7.34;64.95
74792;SHT30;63319;46.046;17.802;2023-12-07T12:42:28;7.28;64.65
74792;SHT30;63319;46.046;17.802;2023-12-07T12:45:32;7.29;64.54
74792;SHT30;63319;46.046;17.802;2023-12-07T12:48:35;7.27;64.59
74792;SHT30;63319;46.046;17.802;2023-12-07T12:51:39;7.15;66.17
74792;SHT30;63319;46.046;17.802;2023-12-07T12:54:46;7.31;64.47
74792;SHT30;63319;46.046;17.802;2023-12-07T12:57:55;7.14;64.53
74792;SHT30;63319;46.046;17.802;2023-12-07T13:00:59;7.10;66.36
74792;SHT30;63319;46.046;17.802;2023-12-07T13:04:06;6.98;66.30
74792;SHT30;63319;46.046;17.802;2023-12-07T13:07:10;7.03;65.99
74792;SHT30;63319;46.046;17.802;2023-12-07T13:10:16;7.08;64.19
74792;SHT30;63319;46.046;17.802;2023-12-07T13:13:19;7.05;64.94
74792;SHT30;63319;46.046;17.802;2023-12-07T13:16:22;6.91;66.93
74792;SHT30;63319;46.046;17.802;2023-12-07T13:19:25;7.15;65.37
74792;SHT30;63319;46.046;17.802;2023-12-07T13:22:29;6.69;67.08
74792;SHT30;63319;46.046;17.802;2023-12-07T13:25:33;6.90;66.77
74792;SHT30;63319;46.046;17.802;2023-12-07T13:28:36;7.12;65.60
74792;SHT30;63319;46.046;17.802;2023-12-07T13:31:40;6.59;66.29
74792;SHT30;63319;46.046;17.802;2023-12-07T13:34:43;6.45;67.92
74792;SHT30;63319;46.046;17.802;2023-12-07T13:37:47;6.18;68.48
74792;SHT30;63319;46.046;17.802;2023-12-07T13:40:50;6.18;69.59
74792;SHT30;63319;46.046;17.802;2023-12-07T13:43:54;6.31;68.43
74792;SHT30;63319;46.046;17.802;2023-12-07T13:46:57;6.45;67.28
74792;SHT30;63319;46.046;17.802;2023-12-07T13:50:00;5.97;69.34
74792;SHT30;63319;46.046;17.802;2023-12-07T13:53:04;5.81;69.78
74792;SHT30;63319;46.046;17.802;2023-12-07T13:56:07;6.10;69.74
74792;SHT30;63319;46.046;17.802;2023-12-07T13:59:11;6.08;69.78
74792;SHT30;63319;46.046;17.802;2023-12-07T14:02:16;5.77;69.61
74792;SHT30;63319;46.046;17.802;2023-12-07T14:05:19;6.05;69.65
74792;SHT30;63319;46.046;17.802;2023-12-07T14:08:25;6.02;68.80
74792;SHT30;63319;46.046;17.802;2023-12-07T14:11:29;6.00;69.71
74792;SHT30;63319;46.046;17.802;2023-12-07T14:14:32;5.93;69.17
74792;SHT30;63319;46.046;17.802;2023-12-07T14:17:35;5.83;69.01
74792;SHT30;63319;46.046;17.802;2023-12-07T14:20:52;5.66;70.74
74792;SHT30;63319;46.046;17.802;2023-12-07T14:24:15;5.60;69.60
74792;SHT30;63319;46.046;17.802;2023-12-07T14:27:18;5.38;70.39
74792;SHT30;63319;46.046;17.802;2023-12-07T14:30:21;5.45;72.06
74792;SHT30;63319;46.046;17.802;2023-12-07T14:33:25;5.36;71.73
74792;SHT30;63319;46.046;17.802;2023-12-07T14:36:28;5.53;70.26
74792;SHT30;63319;46.046;17.802;2023-12-07T14:39:32;5.50;71.21
74792;SHT30;63319;46.046;17.802;2023-12-07T14:42:37;5.56;71.40
74792;SHT30;63319;46.046;17.802;2023-12-07T14:45:40;5.45;71.51
74792;SHT30;63319;46.046;17.802;2023-12-07T14:48:44;5.39;72.07
74792;SHT30;63319;46.046;17.802;2023-12-07T14:51:48;5.56;70.72
74792;SHT30;63319;46.046;17.802;2023-12-07T14:54:51;5.43;70.52
74792;SHT30;63319;46.046;17.802;2023-12-07T14:57:55;5.38;71.82
74792;SHT30;63319;46.046;17.802;2023-12-07T15:00:59;5.24;72.08
74792;SHT30;63319;46.046;17.802;2023-12-07T15:04:02;5.28;72.90
74792;SHT30;63319;46.046;17.802;2023-12-07T15:07:06;5.07;73.08
74792;SHT30;63319;46.046;17.802;2023-12-07T15:10:09;4.96;72.01
74792;SHT30;63319;46.046;17.802;2023-12-07T15:13:12;4.77;74.03
74792;SHT30;63319;46.046;17.802;2023-12-07T15:16:16;4.47;75.56
74792;SHT30;63319;46.046;17.802;2023-12-07T15:19:19;4.19;75.36
74792;SHT30;63319;46.046;17.802;2023-12-07T15:22:22;4.12;76.81
74792;SHT30;63319;46.046;17.802;2023-12-07T15:25:25;3.82;77.26
74792;SHT30;63319;46.046;17.802;2023-12-07T15:28:28;3.57;77.87
74792;SHT30;63319;46.046;17.802;2023-12-07T15:31:32;3.39;77.55
74792;SHT30;63319;46.046;17.802;2023-12-07T15:34:36;3.43;78.71
74792;SHT30;63319;46.046;17.802;2023-12-07T15:37:43;3.91;77.23
74792;SHT30;63319;46.046;17.802;2023-12-07T15:40:47;3.47;78.21
74792;SHT30;63319;46.046;17.802;2023-12-07T15:43:50;3.15;78.99
74792;SHT30;63319;46.046;17.802;2023-12-07T15:46:53;3.24;80.42
74792;SHT30;63319;46.046;17.802;2023-12-07T15:49:56;3.63;78.85
74792;SHT30;63319;46.046;17.802;2023-12-07T15:53:00;3.31;77.90
74792;SHT30;63319;46.046;17.802;2023-12-07T15:56:03;3.05;80.20
74792;SHT30;63319;46.046;17.802;2023-12-07T15:59:06;3.50;78.33
74792;SHT30;63319;46.046;17.802;2023-12-07T16:02:10;3.19;79.82
74792;SHT30;63319;46.046;17.802;2023-12-07T16:05:13;3.06;79.02
74792;SHT30;63319;46.046;17.802;2023-12-07T16:08:16;2.87;79.20
74792;SHT30;63319;46.046;17.802;2023-12-07T16:11:19;2.75;80.53
74792;SHT30;63319;46.046;17.802;2023-12-07T16:14:22;2.64;80.38
74792;SHT30;63319;46.046;17.802;2023-12-07T16:17:32;2.77;80.68
74792;SHT30;63319;46.046;17.802;2023-12-07T16:20:35;2.58;80.66
74792;SHT30;63319;46.046;17.802;2023-12-07T16:23:40;2.54;80.40
74792;SHT30;63319;46.046;17.802;2023-12-07T16:26:43;2.44;81.77
74792;SHT30;63319;46.046;17.802;2023-12-07T16:29:46;2.60;82.08
74792;SHT30;63319;46.046;17.802;2023-12-07T16:32:49;2.70;80.81
74792;SHT30;63319;46.046;17.802;2023-12-07T16:35:52;2.60;81.52
74792;SHT30;63319;46.046;17.802;2023-12-07T16:38:57;2.89;81.44
74792;SHT30;63319;46.046;17.802;2023-12-07T16:42:05;3.05;80.52
74792;SHT30;63319;46.046;17.802;2023-12-07T16:45:08;3.18;79.68
74792;SHT30;63319;46.046;17.802;2023-12-07T16:48:13;3.27;79.39
74792;SHT30;63319;46.046;17.802;2023-12-07T16:51:16;3.19;80.23
74792;SHT30;63319;46.046;17.802;2023-12-07T16:54:20;3.44;80.34
74792;SHT30;63319;46.046;17.802;2023-12-07T16:57:23;3.53;79.22
74792;SHT30;63319;46.046;17.802;2023-12-07T17:00:27;3.64;78.96
74792;SHT30;63319;46.046;17.802;2023-12-07T17:03:30;3.50;78.63
74792;SHT30;63319;46.046;17.802;2023-12-07T17:06:36;3.08;79.53
74792;SHT30;63319;46.046;17.802;2023-12-07T17:09:57;3.27;79.62
74792;SHT30;63319;46.046;17.802;2023-12-07T17:13:01;3.12;80.31
74792;SHT30;63319;46.046;17.802;2023-12-07T17:16:04;2.92;81.66
74792;SHT30;63319;46.046;17.802;2023-12-07T17:19:10;2.62;81.06
74792;SHT30;63319;46.046;17.802;2023-12-07T17:22:14;2.43;82.25
74792;SHT30;63319;46.046;17.802;2023-12-07T17:25:17;2.82;81.44
74792;SHT30;63319;46.046;17.802;2023-12-07T17:28:22;2.75;80.76
74792;SHT30;63319;46.046;17.802;2023-12-07T17:31:25;3.09;80.91
74792;SHT30;63319;46.046;17.802;2023-12-07T17:34:28;2.81;80.29
74792;SHT30;63319;46.046;17.802;2023-12-07T17:37:31;3.36;79.83
74792;SHT30;63319;46.046;17.802;2023-12-07T17:40:34;3.23;78.88
74792;SHT30;63319;46.046;17.802;2023-12-07T17:43:37;3.26;79.46
74792;SHT30;63319;46.046;17.802;2023-12-07T17:46:41;3.34;79.04
74792;SHT30;63319;46.046;17.802;2023-12-07T17:49:44;3.30;78.78
74792;SHT30;63319;46.046;17.802;2023-12-07T17:52:47;3.47;78.92
74792;SHT30;63319;46.046;17.802;2023-12-07T17:55:50;3.44;79.30
74792;SHT30;63319;46.046;17.802;2023-12-07T17:58:53;3.20;78.65
74792;SHT30;63319;46.046;17.802;2023-12-07T18:01:57;3.39;78.11
74792;SHT30;63319;46.046;17.802;2023-12-07T18:05:02;3.23;79.00
74792;SHT30;63319;46.046;17.802;2023-12-07T18:08:06;3.56;78.23
74792;SHT30;63319;46.046;17.802;2023-12-07T18:11:20;3.29;78.48
74792;SHT30;63319;46.046;17.802;2023-12-07T18:14:25;3.18;79.28
74792;SHT30;63319;46.046;17.802;2023-12-07T18:17:28;3.50;78.92
74792;SHT30;63319;46.046;17.802;2023-12-07T18:20:31;3.46;78.08
74792;SHT30;63319;46.046;17.802;2023-12-07T18:23:35;3.09;78.84
74792;SHT30;63319;46.046;17.802;2023-12-07T18:26:38;2.74;77.94
74792;SHT30;63319;46.046;17.802;2023-12-07T18:29:41;2.91;80.73
74792;SHT30;63319;46.046;17.802;2023-12-07T18:32:44;2.80;79.94
74792;SHT30;63319;46.046;17.802;2023-12-07T18:35:47;2.51;80.42
74792;SHT30;63319;46.046;17.802;2023-12-07T18:38:50;2.66;80.02
74792;SHT30;63319;46.046;17.802;2023-12-07T18:41:54;2.70;80.06
74792;SHT30;63319;46.046;17.802;2023-12-07T18:44:57;2.48;80.74
74792;SHT30;63319;46.046;17.802;2023-12-07T18:48:01;2.55;80.99
74792;SHT30;63319;46.046;17.802;2023-12-07T18:51:06;2.74;80.02
74792;SHT30;63319;46.046;17.802;2023-12-07T18:54:09;2.72;80.30
74792;SHT30;63319;46.046;17.802;2023-12-07T18:57:12;2.12;81.64
74792;SHT30;63319;46.046;17.802;2023-12-07T19:00:15;1.86;83.33
74792;SHT30;63319;46.046;17.802;2023-12-07T19:03:21;1.65;83.52
74792;SHT30;63319;46.046;17.802;2023-12-07T19:06:24;1.79;84.35
74792;SHT30;63319;46.046;17.802;2023-12-07T19:09:27;2.16;82.46
74792;SHT30;63319;46.046;17.802;2023-12-07T19:12:30;1.71;82.63
74792;SHT30;63319;46.046;17.802;2023-12-07T19:15:34;1.37;83.67
74792;SHT30;63319;46.046;17.802;2023-12-07T19:18:37;1.08;84.73
74792;SHT30;63319;46.046;17.802;2023-12-07T19:21:40;1.10;85.55
74792;SHT30;63319;46.046;17.802;2023-12-07T19:24:44;1.44;85.10
74792;SHT30;63319;46.046;17.802;2023-12-07T19:27:47;1.13;84.76
74792;SHT30;63319;46.046;17.802;2023-12-07T19:30:50;1.10;85.40